Time;durP1;ratioP1;P1;durP2;ratioP2;P2;SDS_P1;SDS_P2;PMS_P1;PMS_P2;Temp;Humidity;BMP_temperature;BMP_pressure;BME280_temperature;BME280_humidity;BME280_pressure;Samples;Min_cycle;Max_cycle;Signal;HPM_P1;HPM_P2
2021/11/05 00:02:17;;;;;;;10.20;6.13;;;5.40;90.00;;;;;;5025496;28;20692;-60
2021/11/05 00:04:44;;;;;;;12.43;6.45;;;5.40;90.10;;;;;;5026768;28;20080;-60
2021/11/05 00:07:11;;;;;;;14.02;6.15;;;5.30;90.10;;;;;;5026573;28;20468;-60
2021/11/05 00:09:40;;;;;;;11.82;5.72;;;5.40;90.20;;;;;;5024989;28;20077;-59
2021/11/05 00:12:07;;;;;;;16.27;6.32;;;5.30;90.10;;;;;;5027711;28;20095;-59
2021/11/05 00:14:34;;;;;;;21.25;6.85;;;5.30;90.10;;;;;;5026761;28;20045;-59
2021/11/05 00:17:01;;;;;;;11.05;6.03;;;5.20;90.20;;;;;;5027944;28;20087;-58
2021/11/05 00:19:28;;;;;;;15.32;6.93;;;5.20;90.30;;;;;;5027962;28;20095;-59
2021/11/05 00:21:54;;;;;;;17.95;7.15;;;5.10;90.40;;;;;;5027632;28;20119;-58
2021/11/05 00:24:21;;;;;;;12.38;7.00;;;5.00;90.40;;;;;;5027394;28;20057;-59
2021/11/05 00:26:48;;;;;;;19.13;7.75;;;4.90;90.50;;;;;;5024875;28;20188;-59
2021/11/05 00:29:15;;;;;;;21.17;7.78;;;4.90;90.60;;;;;;5011570;28;20053;-59
2021/11/05 00:31:42;;;;;;;17.17;7.93;;;4.90;90.70;;;;;;5027387;28;20140;-59
2021/11/05 00:34:08;;;;;;;18.58;8.73;;;4.80;90.70;;;;;;5023712;28;20075;-59
2021/11/05 00:36:35;;;;;;;15.90;7.68;;;4.80;90.80;;;;;;5027402;28;20500;-58
2021/11/05 00:39:02;;;;;;;17.55;8.38;;;4.70;90.90;;;;;;5027481;28;20176;-59
2021/11/05 00:41:29;;;;;;;17.70;9.35;;;4.70;90.90;;;;;;5024553;28;20045;-59
2021/11/05 00:43:56;;;;;;;21.92;8.98;;;4.70;91.00;;;;;;5026798;28;20076;-60
2021/11/05 00:46:23;;;;;;;17.10;9.82;;;4.70;91.00;;;;;;5026985;28;20164;-59
2021/11/05 00:48:49;;;;;;;21.42;10.35;;;4.60;91.00;;;;;;5024992;28;20041;-59
2021/11/05 00:51:16;;;;;;;22.90;11.45;;;4.60;91.10;;;;;;5025442;28;20084;-58
2021/11/05 00:53:43;;;;;;;18.70;11.50;;;4.50;91.20;;;;;;5027900;28;20115;-58
2021/11/05 00:56:10;;;;;;;23.23;11.35;;;4.50;91.30;;;;;;5023996;28;20049;-58
2021/11/05 00:58:37;;;;;;;21.48;12.52;;;4.40;91.40;;;;;;5026783;28;20486;-59
2021/11/05 01:01:04;;;;;;;23.58;12.65;;;4.30;91.50;;;;;;5025750;28;20912;-59
2021/11/05 01:03:31;;;;;;;18.77;12.20;;;4.30;91.60;;;;;;5025421;28;20128;-59
2021/11/05 01:05:58;;;;;;;31.08;13.32;;;4.20;91.60;;;;;;5026542;28;20049;-59
2021/11/05 01:08:25;;;;;;;25.55;11.68;;;4.20;91.70;;;;;;5026909;28;20059;-58
2021/11/05 01:10:51;;;;;;;23.88;11.25;;;4.20;91.80;;;;;;5025096;28;20049;-58
2021/11/05 01:13:18;;;;;;;24.38;13.68;;;4.20;91.70;;;;;;5027031;28;20050;-62
2021/11/05 01:15:45;;;;;;;26.13;14.25;;;4.20;91.70;;;;;;5025582;28;20046;-59
2021/11/05 01:18:12;;;;;;;32.22;13.57;;;4.10;91.70;;;;;;5024163;28;20124;-59
2021/11/05 01:20:39;;;;;;;25.35;12.73;;;4.10;91.80;;;;;;5026111;28;20084;-59
2021/11/05 01:23:08;;;;;;;32.67;15.57;;;4.10;91.80;;;;;;5024999;28;20073;-58
2021/11/05 01:25:35;;;;;;;27.58;13.85;;;4.10;91.90;;;;;;5026335;28;20057;-59
2021/11/05 01:28:02;;;;;;;30.50;14.48;;;4.00;91.80;;;;;;5026456;28;20087;-59
2021/11/05 01:30:29;;;;;;;35.83;16.92;;;4.10;91.90;;;;;;5027309;28;20049;-59
2021/11/05 01:32:56;;;;;;;26.38;15.30;;;4.10;92.00;;;;;;5026926;28;20045;-59
2021/11/05 01:35:23;;;;;;;35.40;17.08;;;4.10;92.00;;;;;;5027375;28;20065;-60
2021/11/05 01:37:50;;;;;;;38.67;20.88;;;4.00;92.00;;;;;;5027146;28;20091;-58
2021/11/05 01:40:16;;;;;;;38.85;20.00;;;4.10;92.00;;;;;;5026890;28;20081;-59
2021/11/05 01:42:43;;;;;;;37.30;20.85;;;4.00;92.00;;;;;;5024753;28;20570;-58
2021/11/05 01:45:11;;;;;;;42.25;20.48;;;4.00;92.10;;;;;;5025222;28;20492;-64
2021/11/05 01:47:38;;;;;;;41.25;22.27;;;4.10;92.10;;;;;;5025690;28;20128;-58
2021/11/05 01:50:07;;;;;;;46.03;20.58;;;4.00;92.10;;;;;;5026910;28;20083;-59
2021/11/05 01:52:34;;;;;;;43.25;21.90;;;4.00;92.00;;;;;;5033482;28;20037;-58
2021/11/05 01:55:00;;;;;;;45.53;23.65;;;4.00;92.20;;;;;;5025496;28;20073;-59
2021/11/05 01:57:27;;;;;;;46.22;25.92;;;4.00;92.20;;;;;;5026803;28;20073;-57
2021/11/05 01:59:54;;;;;;;54.50;24.27;;;4.00;92.10;;;;;;5025765;28;20128;-58
2021/11/05 02:02:21;;;;;;;46.40;24.27;;;3.90;92.00;;;;;;5030008;28;20561;-58
2021/11/05 02:04:48;;;;;;;43.47;24.23;;;3.90;92.20;;;;;;5026498;28;20087;-59
2021/11/05 02:07:15;;;;;;;49.90;24.50;;;3.90;92.30;;;;;;5026669;28;20096;-58
2021/11/05 02:09:42;;;;;;;50.40;25.50;;;3.80;92.20;;;;;;4685519;28;10000172;-59
2021/11/05 02:12:10;;;;;;;44.20;24.45;;;3.80;92.10;;;;;;5024444;28;20057;-59
2021/11/05 02:14:36;;;;;;;52.22;24.10;;;3.70;92.20;;;;;;5029432;28;20080;-58
2021/11/05 02:17:08;;;;;;;46.45;23.20;;;3.70;92.30;;;;;;5012616;28;20517;-58
2021/11/05 02:19:35;;;;;;;45.95;24.05;;;3.60;92.20;;;;;;5031673;28;20045;-58
2021/11/05 02:22:02;;;;;;;53.42;25.63;;;3.60;92.40;;;;;;5029655;28;20054;-58
2021/11/05 02:24:29;;;;;;;41.20;23.42;;;3.60;92.50;;;;;;5030272;28;20496;-58
2021/11/05 02:26:57;;;;;;;46.70;24.02;;;3.60;92.40;;;;;;5030230;28;20057;-58
2021/11/05 02:29:28;;;;;;;45.83;25.38;;;3.60;92.40;;;;;;5030377;28;20073;-60
2021/11/05 02:31:54;;;;;;;42.25;22.48;;;3.50;92.60;;;;;;5030474;28;20080;-58
2021/11/05 02:34:21;;;;;;;38.58;21.85;;;3.50;92.70;;;;;;5029981;28;20633;-59
2021/11/05 02:36:48;;;;;;;39.05;21.00;;;3.50;92.70;;;;;;5030367;28;20046;-58
2021/11/05 02:39:15;;;;;;;48.33;22.88;;;3.50;92.60;;;;;;5029109;28;20518;-58
2021/11/05 02:41:43;;;;;;;48.47;24.38;;;3.50;92.50;;;;;;5023205;28;20046;-59
2021/11/05 02:44:10;;;;;;;43.25;21.35;;;3.50;92.80;;;;;;5029443;28;20045;-58
2021/11/05 02:46:37;;;;;;;40.38;20.45;;;3.50;92.60;;;;;;5030415;28;20050;-58
2021/11/05 02:49:05;;;;;;;44.97;22.95;;;3.50;92.70;;;;;;5030055;28;20092;-58
2021/11/05 02:51:32;;;;;;;37.80;19.50;;;3.40;92.60;;;;;;5030333;28;20069;-57
2021/11/05 02:54:00;;;;;;;36.58;19.83;;;3.40;92.70;;;;;;5030069;28;20076;-57
2021/11/05 02:56:27;;;;;;;36.83;19.70;;;3.40;92.70;;;;;;5029682;28;20080;-59
2021/11/05 02:58:53;;;;;;;35.08;17.73;;;3.40;92.80;;;;;;5032520;28;20136;-59
2021/11/05 03:01:20;;;;;;;33.92;18.42;;;3.40;92.70;;;;;;5032506;28;20049;-58
2021/11/05 03:03:47;;;;;;;38.80;15.82;;;3.40;92.70;;;;;;5028686;28;20107;-58
2021/11/05 03:06:14;;;;;;;30.30;15.25;;;3.40;92.90;;;;;;5029471;28;20084;-57
2021/11/05 03:08:41;;;;;;;31.38;14.95;;;3.40;92.80;;;;;;5030077;28;20076;-57
2021/11/05 03:11:12;;;;;;;24.73;12.65;;;3.40;92.80;;;;;;5032807;28;20132;-61
2021/11/05 03:13:43;;;;;;;25.00;13.25;;;3.40;92.90;;;;;;5028318;28;20046;-58
2021/11/05 03:16:10;;;;;;;24.55;13.13;;;3.40;92.90;;;;;;5029161;28;20053;-59
2021/11/05 03:18:41;;;;;;;23.60;12.48;;;3.30;92.90;;;;;;5028800;28;20041;-62
2021/11/05 03:21:08;;;;;;;26.25;14.10;;;3.40;92.90;;;;;;5029486;28;20049;-59
2021/11/05 03:23:35;;;;;;;23.20;12.00;;;3.30;92.90;;;;;;5028568;28;20049;-59
2021/11/05 03:26:02;;;;;;;19.98;11.23;;;3.30;92.90;;;;;;5027797;28;20049;-59
2021/11/05 03:28:29;;;;;;;21.58;11.55;;;3.30;93.10;;;;;;5029663;28;20099;-58
2021/11/05 03:30:56;;;;;;;24.23;11.32;;;3.30;93.10;;;;;;5029631;28;20180;-59
2021/11/05 03:33:23;;;;;;;22.10;10.65;;;3.30;93.10;;;;;;5029404;28;20699;-59
2021/11/05 03:35:50;;;;;;;13.90;9.30;;;3.30;93.10;;;;;;5011877;28;20084;-59
2021/11/05 03:38:16;;;;;;;20.73;9.82;;;3.30;93.10;;;;;;5029106;28;20041;-59
2021/11/05 03:40:43;;;;;;;20.08;9.95;;;3.30;93.10;;;;;;5029308;28;20084;-58
2021/11/05 03:43:10;;;;;;;21.75;10.20;;;3.20;93.40;;;;;;5027997;28;20587;-58
2021/11/05 03:45:37;;;;;;;15.68;7.97;;;3.20;93.20;;;;;;5029348;28;20103;-59
2021/11/05 03:48:04;;;;;;;23.05;11.48;;;3.20;93.30;;;;;;5028412;28;20073;-59
2021/11/05 03:50:30;;;;;;;24.67;8.93;;;3.20;93.20;;;;;;5029010;28;20099;-58
2021/11/05 03:52:57;;;;;;;21.25;9.85;;;3.20;93.20;;;;;;5029019;28;20069;-58
2021/11/05 03:55:24;;;;;;;15.10;8.00;;;3.20;93.30;;;;;;5045951;28;20053;-57
2021/11/05 03:57:51;;;;;;;17.30;8.52;;;3.20;93.20;;;;;;5035136;28;20045;-58
2021/11/05 04:00:18;;;;;;;20.40;9.65;;;3.20;93.10;;;;;;5028895;28;20487;-58
2021/11/05 04:02:45;;;;;;;20.80;8.20;;;3.20;93.20;;;;;;5025438;28;20574;-59
2021/11/05 04:05:12;;;;;;;19.67;9.25;;;3.40;93.10;;;;;;5028579;28;20046;-59
2021/11/05 04:07:39;;;;;;;12.63;7.63;;;3.30;93.00;;;;;;5028616;28;20500;-59
2021/11/05 04:10:06;;;;;;;14.13;8.05;;;3.30;92.90;;;;;;5028468;28;20056;-59
2021/11/05 04:12:33;;;;;;;17.85;7.90;;;3.20;93.10;;;;;;5028967;28;20049;-56
2021/11/05 04:14:59;;;;;;;19.63;7.28;;;3.10;93.30;;;;;;5027382;28;20149;-59
2021/11/05 04:17:26;;;;;;;13.77;6.85;;;2.90;93.60;;;;;;5027389;28;20046;-60
2021/11/05 04:19:53;;;;;;;13.77;6.68;;;2.80;93.80;;;;;;5028793;28;20046;-58
2021/11/05 04:22:20;;;;;;;18.58;7.18;;;2.80;93.70;;;;;;5034315;28;20080;-57
2021/11/05 04:24:46;;;;;;;14.05;6.35;;;2.90;93.90;;;;;;5029367;28;20133;-60
2021/11/05 04:27:13;;;;;;;11.73;6.60;;;2.80;93.60;;;;;;5028670;28;20084;-58
2021/11/05 04:29:40;;;;;;;10.32;5.95;;;2.90;93.50;;;;;;5028732;28;20567;-58
2021/11/05 04:32:07;;;;;;;12.57;6.50;;;2.80;93.70;;;;;;5027467;28;20049;-60
2021/11/05 04:34:34;;;;;;;12.10;6.65;;;2.80;93.70;;;;;;5028776;28;20045;-58
2021/11/05 04:37:01;;;;;;;9.77;5.90;;;2.80;93.60;;;;;;5028809;28;20057;-58
2021/11/05 04:39:28;;;;;;;14.25;6.93;;;2.80;93.50;;;;;;5028755;28;20045;-58
2021/11/05 04:41:55;;;;;;;12.60;6.80;;;2.90;93.50;;;;;;5027544;28;20053;-58
2021/11/05 04:44:22;;;;;;;12.13;6.28;;;2.90;93.40;;;;;;5028372;28;20100;-58
2021/11/05 04:46:49;;;;;;;16.90;6.63;;;3.00;93.80;;;;;;5028275;28;20148;-59
2021/11/05 04:49:15;;;;;;;10.32;5.72;;;2.80;93.70;;;;;;5028004;28;20116;-59
2021/11/05 04:51:42;;;;;;;12.27;5.50;;;2.80;93.80;;;;;;5028267;28;20081;-57
2021/11/05 04:54:09;;;;;;;14.45;5.90;;;2.80;93.80;;;;;;5029340;28;20045;-58
2021/11/05 04:56:36;;;;;;;12.30;6.03;;;2.80;93.70;;;;;;5035799;28;20053;-57
2021/11/05 04:59:03;;;;;;;12.70;6.30;;;2.70;93.70;;;;;;5026081;28;20048;-58
2021/11/05 05:01:30;;;;;;;14.43;7.25;;;2.60;94.60;;;;;;5026832;28;20053;-58
2021/11/05 05:03:57;;;;;;;13.50;5.90;;;2.50;94.50;;;;;;5027198;28;20076;-58
2021/11/05 05:06:23;;;;;;;12.93;6.80;;;2.50;94.20;;;;;;5027589;28;20049;-58
2021/11/05 05:08:50;;;;;;;13.93;6.50;;;2.60;94.10;;;;;;5009969;28;20504;-58
2021/11/05 05:11:17;;;;;;;22.60;7.20;;;2.70;93.90;;;;;;5027166;28;20049;-58
2021/11/05 05:13:44;;;;;;;12.40;5.63;;;2.70;93.80;;;;;;5034871;28;20041;-58
2021/11/05 05:16:11;;;;;;;10.55;5.72;;;2.80;93.70;;;;;;5027134;28;20072;-58
2021/11/05 05:18:37;;;;;;;16.83;5.80;;;2.80;93.70;;;;;;5028043;28;20052;-57
2021/11/05 05:21:04;;;;;;;11.25;6.15;;;2.80;93.80;;;;;;5026007;28;20076;-58
2021/11/05 05:23:31;;;;;;;10.30;5.78;;;2.70;93.60;;;;;;5029160;28;20049;-58
2021/11/05 05:25:58;;;;;;;17.17;5.47;;;2.70;93.60;;;;;;5029400;28;20421;-58
2021/11/05 05:28:24;;;;;;;14.40;7.03;;;2.60;93.60;;;;;;5029876;28;20057;-58
2021/11/05 05:30:53;;;;;;;11.32;6.30;;;2.60;93.70;;;;;;5033377;28;20087;-59
2021/11/05 05:33:20;;;;;;;15.40;6.25;;;2.50;94.00;;;;;;5030976;28;20286;-59
2021/11/05 05:35:47;;;;;;;14.77;7.22;;;2.40;94.00;;;;;;5027827;28;20072;-59
2021/11/05 05:38:14;;;;;;;12.40;6.93;;;2.40;94.10;;;;;;5027792;28;20499;-59
2021/11/05 05:40:41;;;;;;;10.93;6.57;;;2.40;94.20;;;;;;5027228;28;20046;-58
2021/11/05 05:43:07;;;;;;;14.40;6.72;;;2.40;94.30;;;;;;5027526;28;20508;-58
2021/11/05 05:45:34;;;;;;;17.45;6.38;;;2.40;94.30;;;;;;5026177;28;20073;-57
2021/11/05 05:48:01;;;;;;;17.95;6.03;;;2.40;94.10;;;;;;5027245;28;20057;-57
2021/11/05 05:50:28;;;;;;;13.68;5.90;;;2.40;94.10;;;;;;5026450;28;20050;-58
2021/11/05 05:52:55;;;;;;;15.45;6.72;;;2.40;94.00;;;;;;5027300;28;20045;-57
2021/11/05 05:55:24;;;;;;;16.40;8.32;;;2.50;93.90;;;;;;5026584;28;20141;-57
2021/11/05 05:57:52;;;;;;;13.15;6.25;;;2.50;93.90;;;;;;5024434;28;20045;-58
2021/11/05 06:00:18;;;;;;;17.95;7.45;;;2.50;93.90;;;;;;5027018;28;20100;-57
2021/11/05 06:02:46;;;;;;;15.32;7.75;;;2.50;94.00;;;;;;5027025;28;20099;-58
2021/11/05 06:05:13;;;;;;;17.05;7.15;;;2.50;93.80;;;;;;5027047;28;20107;-58
2021/11/05 06:07:40;;;;;;;10.82;6.38;;;2.50;94.00;;;;;;5026945;28;20289;-59
2021/11/05 06:10:07;;;;;;;16.50;6.47;;;2.40;93.90;;;;;;5026850;28;20100;-59
2021/11/05 06:12:34;;;;;;;14.95;7.32;;;2.40;93.80;;;;;;5026677;28;20098;-57
2021/11/05 06:15:01;;;;;;;14.88;7.05;;;2.40;93.80;;;;;;5027092;28;20081;-59
2021/11/05 06:17:27;;;;;;;16.70;7.88;;;2.40;93.80;;;;;;5025579;28;20053;-59
2021/11/05 06:19:54;;;;;;;17.83;6.97;;;2.40;93.90;;;;;;5027089;28;20080;-58
2021/11/05 06:22:21;;;;;;;20.05;7.75;;;2.40;94.00;;;;;;5025064;28;20077;-56
2021/11/05 06:24:48;;;;;;;12.57;7.32;;;2.30;94.10;;;;;;5026908;28;20046;-58
2021/11/05 06:27:15;;;;;;;18.95;7.85;;;2.40;94.00;;;;;;5025801;28;20089;-59
2021/11/05 06:29:42;;;;;;;18.42;8.98;;;2.30;94.00;;;;;;5027070;28;20120;-58
2021/11/05 06:32:09;;;;;;;17.92;8.52;;;2.30;94.10;;;;;;5025045;28;20064;-59
2021/11/05 06:34:36;;;;;;;13.73;6.97;;;2.30;94.00;;;;;;5026675;28;20057;-58
2021/11/05 06:37:03;;;;;;;18.77;7.63;;;2.40;94.00;;;;;;5025807;28;20049;-58
2021/11/05 06:39:30;;;;;;;15.98;7.53;;;2.40;93.90;;;;;;5024917;28;20045;-57
2021/11/05 06:41:58;;;;;;;15.63;8.30;;;2.50;93.90;;;;;;5023435;28;20049;-59
2021/11/05 06:44:25;;;;;;;16.45;7.78;;;2.40;93.80;;;;;;5026636;28;20485;-58
2021/11/05 06:46:52;;;;;;;16.20;7.78;;;2.30;93.80;;;;;;5025001;28;20053;-57
2021/11/05 06:49:19;;;;;;;14.95;8.13;;;2.30;93.80;;;;;;5025001;28;20054;-59
2021/11/05 06:51:48;;;;;;;17.85;7.93;;;2.40;93.90;;;;;;5026719;28;20053;-58
2021/11/05 06:54:15;;;;;;;22.30;7.65;;;2.30;93.80;;;;;;5024395;28;20123;-57
2021/11/05 06:56:44;;;;;;;24.13;8.23;;;2.30;93.80;;;;;;5005633;28;20050;-60
2021/11/05 06:59:11;;;;;;;21.77;8.98;;;2.30;94.10;;;;;;5022633;28;20103;-57
2021/11/05 07:01:39;;;;;;;17.58;8.65;;;2.30;93.80;;;;;;5029339;28;20081;-60
2021/11/05 07:04:05;;;;;;;19.83;9.25;;;2.40;93.90;;;;;;5029941;28;20099;-57
2021/11/05 07:06:32;;;;;;;20.63;10.25;;;2.30;93.90;;;;;;5028675;28;20085;-58
2021/11/05 07:08:59;;;;;;;20.80;8.60;;;2.40;93.90;;;;;;5029638;28;20120;-58
2021/11/05 07:11:26;;;;;;;16.15;8.50;;;2.30;93.90;;;;;;5029860;28;20099;-53
2021/11/05 07:13:53;;;;;;;24.88;9.80;;;2.40;93.80;;;;;;5028255;28;20049;-55
2021/11/05 07:16:21;;;;;;;21.92;9.77;;;2.30;93.90;;;;;;5028743;28;20678;-55
2021/11/05 07:18:49;;;;;;;21.08;10.52;;;2.40;94.10;;;;;;5029246;28;20081;-52
2021/11/05 07:21:17;;;;;;;26.05;9.68;;;2.30;94.10;;;;;;5029353;28;20461;-56
2021/11/05 07:23:44;;;;;;;22.33;10.60;;;2.30;94.10;;;;;;5029729;28;20042;-55
2021/11/05 07:26:12;;;;;;;19.92;9.60;;;2.30;94.20;;;;;;5018243;28;20041;-56
2021/11/05 07:28:40;;;;;;;30.17;11.25;;;2.30;94.30;;;;;;5028051;28;20141;-57
2021/11/05 07:31:06;;;;;;;23.80;10.55;;;2.30;94.20;;;;;;5029468;28;20041;-57
2021/11/05 07:33:33;;;;;;;25.25;10.68;;;2.40;94.10;;;;;;5029371;28;20185;-60
2021/11/05 07:36:00;;;;;;;29.42;11.15;;;2.40;94.20;;;;;;5028710;28;20045;-57
2021/11/05 07:38:27;;;;;;;25.52;11.25;;;2.50;94.20;;;;;;5027129;28;20504;-56
2021/11/05 07:40:57;;;;;;;19.13;9.70;;;2.50;94.20;;;;;;5028736;28;20078;-56
2021/11/05 07:43:24;;;;;;;26.65;10.15;;;2.60;94.10;;;;;;5028867;28;20459;-56
2021/11/05 07:45:50;;;;;;;27.35;10.85;;;2.60;94.00;;;;;;5028562;28;20389;-56
2021/11/05 07:48:17;;;;;;;19.23;10.90;;;2.60;94.10;;;;;;5025723;28;20506;-52
2021/11/05 07:50:44;;;;;;;27.80;12.30;;;2.60;94.10;;;;;;5027986;28;20046;-56
2021/11/05 07:53:11;;;;;;;24.75;11.57;;;2.70;94.20;;;;;;5028428;28;20049;-54
2021/11/05 07:55:38;;;;;;;25.13;11.95;;;2.70;94.00;;;;;;5027963;28;20568;-56
2021/11/05 07:58:05;;;;;;;26.60;11.68;;;2.80;94.00;;;;;;5026724;28;20076;-56
2021/11/05 08:00:32;;;;;;;26.65;10.57;;;2.80;93.90;;;;;;5028368;28;20081;-54
2021/11/05 08:03:00;;;;;;;24.25;11.65;;;2.80;94.10;;;;;;5028516;28;20049;-56
2021/11/05 08:05:26;;;;;;;23.25;10.48;;;2.80;94.00;;;;;;5028055;28;20053;-59
2021/11/05 08:07:53;;;;;;;23.30;10.80;;;2.90;94.10;;;;;;5026024;28;20055;-53
2021/11/05 08:10:20;;;;;;;32.08;11.23;;;2.90;94.00;;;;;;5024241;28;20144;-55
2021/11/05 08:12:48;;;;;;;27.40;11.15;;;3.00;94.10;;;;;;5024742;28;20045;-55
2021/11/05 08:15:15;;;;;;;29.63;12.77;;;3.00;94.10;;;;;;5027260;28;20049;-55
2021/11/05 08:17:43;;;;;;;28.33;11.25;;;3.00;94.10;;;;;;5024939;28;20126;-56
2021/11/05 08:20:11;;;;;;;22.50;11.50;;;3.20;94.20;;;;;;5021363;28;20184;-53
2021/11/05 08:22:39;;;;;;;26.05;11.70;;;3.10;94.10;;;;;;5021980;28;20148;-55
2021/11/05 08:25:06;;;;;;;24.45;11.35;;;3.20;94.20;;;;;;5025323;28;20092;-54
2021/11/05 08:27:35;;;;;;;27.75;12.18;;;3.20;94.40;;;;;;5024671;28;20053;-54
2021/11/05 08:30:06;;;;;;;28.52;12.13;;;3.30;94.00;;;;;;5025465;28;20169;-55
2021/11/05 08:32:33;;;;;;;26.35;12.05;;;3.40;94.10;;;;;;5024288;28;20504;-54
2021/11/05 08:35:00;;;;;;;24.20;11.60;;;3.40;94.30;;;;;;5024511;28;20237;-59
2021/11/05 08:37:26;;;;;;;28.67;12.10;;;3.50;94.10;;;;;;5024671;28;20136;-56
2021/11/05 08:39:53;;;;;;;27.75;13.93;;;3.60;93.80;;;;;;5027098;28;20111;-55
2021/11/05 08:42:20;;;;;;;19.85;10.45;;;3.70;93.90;;;;;;5027207;28;20089;-57
2021/11/05 08:44:47;;;;;;;29.45;11.77;;;3.90;93.70;;;;;;5027831;28;20148;-57
2021/11/05 08:47:13;;;;;;;26.65;12.45;;;4.20;93.50;;;;;;5027064;28;20051;-55
2021/11/05 08:49:40;;;;;;;25.67;11.25;;;4.50;93.20;;;;;;5027873;28;20125;-54
2021/11/05 08:52:07;;;;;;;24.63;9.68;;;4.70;92.90;;;;;;5027412;28;20061;-55
2021/11/05 08:54:34;;;;;;;25.30;11.13;;;4.70;92.70;;;;;;5014125;28;20141;-56
2021/11/05 08:57:01;;;;;;;21.52;10.57;;;4.60;92.70;;;;;;5024815;28;20080;-55
2021/11/05 08:59:28;;;;;;;28.85;11.75;;;4.50;92.70;;;;;;5026509;28;20049;-56
2021/11/05 09:01:54;;;;;;;29.90;10.60;;;4.40;92.90;;;;;;5026373;28;20050;-54
2021/11/05 09:04:21;;;;;;;21.63;10.43;;;4.40;93.00;;;;;;5026784;28;20077;-53
2021/11/05 09:06:48;;;;;;;22.35;11.05;;;4.40;93.00;;;;;;5027109;28;20046;-54
2021/11/05 09:09:15;;;;;;;22.63;9.73;;;4.40;92.80;;;;;;5026522;28;20053;-54
2021/11/05 09:11:44;;;;;;;26.77;11.73;;;4.30;92.90;;;;;;5026822;28;20089;-56
2021/11/05 09:14:10;;;;;;;23.98;10.23;;;4.30;92.80;;;;;;5025896;28;20136;-54
2021/11/05 09:16:42;;;;;;;27.90;10.20;;;4.30;92.70;;;;;;5027170;28;20053;-52
2021/11/05 09:19:09;;;;;;;24.30;10.13;;;4.30;92.80;;;;;;5026419;28;20046;-55
2021/11/05 09:21:35;;;;;;;27.17;11.63;;;4.30;92.90;;;;;;5027062;28;20049;-54
2021/11/05 09:24:03;;;;;;;27.98;12.13;;;4.30;92.90;;;;;;5026051;28;20045;-55
2021/11/05 09:26:30;;;;;;;23.33;10.52;;;4.30;92.90;;;;;;5006922;28;20050;-55
2021/11/05 09:28:57;;;;;;;28.58;10.52;;;4.30;92.70;;;;;;5019928;28;20144;-53
2021/11/05 09:31:24;;;;;;;27.40;10.90;;;4.40;92.90;;;;;;5021845;28;20050;-55
2021/11/05 09:33:51;;;;;;;29.52;12.50;;;4.40;92.90;;;;;;5024019;28;20137;-55
2021/11/05 09:36:18;;;;;;;28.10;10.82;;;4.50;93.10;;;;;;5023824;28;20051;-52
2021/11/05 09:38:45;;;;;;;20.33;9.98;;;4.50;92.80;;;;;;5023155;28;20041;-54
2021/11/05 09:41:12;;;;;;;19.08;9.73;;;4.60;92.40;;;;;;5023336;28;20050;-55
2021/11/05 09:43:39;;;;;;;22.40;10.07;;;4.60;92.50;;;;;;5023816;28;20107;-54
2021/11/05 09:46:06;;;;;;;23.30;9.15;;;4.70;92.70;;;;;;5022437;28;20178;-55
2021/11/05 09:48:37;;;;;;;23.10;9.90;;;4.70;92.50;;;;;;5024330;28;20112;-54
2021/11/05 09:51:05;;;;;;;25.33;9.68;;;4.80;92.60;;;;;;5023931;28;20137;-56
2021/11/05 09:53:35;;;;;;;21.58;9.38;;;4.90;92.60;;;;;;5024633;28;20745;-55
2021/11/05 09:56:04;;;;;;;37.17;10.23;;;5.00;92.20;;;;;;5024946;28;20054;-56
2021/11/05 09:58:31;;;;;;;21.10;9.32;;;5.00;92.20;;;;;;5006256;28;20050;-55
2021/11/05 10:00:58;;;;;;;25.13;10.40;;;5.00;92.10;;;;;;5024682;28;20133;-54
2021/11/05 10:03:24;;;;;;;19.02;8.75;;;5.10;92.10;;;;;;5024162;28;20053;-56
2021/11/05 10:05:52;;;;;;;25.35;9.05;;;5.20;92.00;;;;;;5024014;28;20045;-55
2021/11/05 10:08:52;;;;;;;21.40;9.73;;;5.30;91.90;;;;;;5022957;28;20075;-56
2021/11/05 10:11:24;;;;;;;23.05;8.93;;;5.30;91.30;;;;;;5026005;28;20480;-56
2021/11/05 10:13:55;;;;;;;23.35;8.52;;;5.40;91.70;;;;;;5024610;28;20136;-56
2021/11/05 10:16:24;;;;;;;16.92;8.07;;;5.40;91.50;;;;;;5003378;28;20089;-53
2021/11/05 10:19:04;;;;;;;16.52;8.82;;;5.40;91.30;;;;;;4988085;28;20083;-56
2021/11/05 10:21:40;;;;;;;20.17;9.52;;;5.50;91.40;;;;;;5019660;28;20126;-56
2021/11/05 10:24:09;;;;;;;21.50;8.65;;;5.50;91.40;;;;;;5024296;28;20096;-54
2021/11/05 10:26:36;;;;;;;15.75;7.95;;;5.60;91.50;;;;;;5023563;28;20504;-56
2021/11/05 10:29:06;;;;;;;15.55;6.97;;;5.70;91.20;;;;;;5024509;28;20371;-55
2021/11/05 10:31:47;;;;;;;20.07;8.80;;;5.70;91.30;;;;;;4676711;28;10000104;-55
2021/11/05 10:34:14;;;;;;;15.25;8.65;;;5.80;91.40;;;;;;5024448;28;20082;-54
2021/11/05 10:36:42;;;;;;;22.02;8.52;;;5.90;91.10;;;;;;5027146;28;20091;-56
2021/11/05 10:39:12;;;;;;;16.77;8.15;;;6.00;91.20;;;;;;5010836;28;20049;-55
2021/11/05 10:41:39;;;;;;;20.30;7.75;;;6.10;91.00;;;;;;5028146;28;20060;-59
2021/11/05 10:44:16;;;;;;;18.77;7.32;;;6.10;90.60;;;;;;5026544;28;20123;-55
2021/11/05 10:46:43;;;;;;;17.80;8.23;;;6.20;90.30;;;;;;5026543;28;20088;-56
2021/11/05 10:49:27;;;;;;;18.27;7.97;;;6.30;90.10;;;;;;5027705;28;20051;-57
2021/11/05 10:52:14;;;;;;;14.70;6.10;;;6.30;89.70;;;;;;5024130;28;20126;-56
2021/11/05 10:54:58;;;;;;;14.60;6.43;;;6.40;88.60;;;;;;5008485;28;20089;-53
2021/11/05 10:57:42;;;;;;;10.80;5.30;;;6.40;88.70;;;;;;5025368;28;20127;-55
2021/11/05 11:00:26;;;;;;;12.82;5.55;;;6.50;86.70;;;;;;5027313;28;20088;-53
2021/11/05 11:02:53;;;;;;;11.35;5.78;;;6.60;85.40;;;;;;5029638;28;20069;-54
2021/11/05 11:05:29;;;;;;;11.27;5.60;;;6.70;90.10;;;;;;5027657;28;20451;-56
2021/11/05 11:07:56;;;;;;;12.20;6.00;;;6.70;86.40;;;;;;5026004;28;20080;-55
2021/11/05 11:10:33;;;;;;;10.48;4.28;;;6.80;86.20;;;;;;5027412;28;20103;-54
2021/11/05 11:13:00;;;;;;;11.27;5.25;;;6.80;83.60;;;;;;5026135;28;20053;-52
2021/11/05 11:15:34;;;;;;;11.48;4.90;;;6.90;86.40;;;;;;5027355;28;20042;-55
2021/11/05 11:18:01;;;;;;;10.27;5.88;;;6.90;84.90;;;;;;5026126;28;20057;-55
2021/11/05 11:20:36;;;;;;;10.75;4.93;;;6.90;87.40;;;;;;5026923;28;20053;-55
2021/11/05 11:23:03;;;;;;;10.73;5.50;;;6.90;84.20;;;;;;5026928;28;20056;-55
2021/11/05 11:25:31;;;;;;;9.05;4.55;;;7.00;85.90;;;;;;5025586;28;20152;-56
2021/11/05 11:28:00;;;;;;;10.63;4.63;;;7.00;87.40;;;;;;5026177;28;20084;-54
2021/11/05 11:30:27;;;;;;;9.77;4.57;;;7.10;87.00;;;;;;5026473;28;20088;-52
2021/11/05 11:32:55;;;;;;;9.75;4.93;;;7.20;85.60;;;;;;5026140;28;20537;-55
2021/11/05 11:35:21;;;;;;;12.52;5.10;;;7.20;86.50;;;;;;5026806;28;20073;-54
2021/11/05 11:37:48;;;;;;;10.00;4.80;;;7.30;85.00;;;;;;5025251;28;20076;-53
2021/11/05 11:40:16;;;;;;;11.07;4.97;;;7.40;86.80;;;;;;5025146;28;20056;-56
2021/11/05 11:42:43;;;;;;;8.10;4.80;;;7.40;84.10;;;;;;5026640;28;20088;-55
2021/11/05 11:45:11;;;;;;;9.27;4.53;;;7.40;83.10;;;;;;5008948;28;20179;-54
2021/11/05 11:47:42;;;;;;;11.68;4.65;;;7.40;86.20;;;;;;5024794;28;20590;-54
2021/11/05 11:50:38;;;;;;;8.68;3.88;;;7.50;84.30;;;;;;5026547;28;20410;-56
2021/11/05 11:53:08;;;;;;;12.32;4.25;;;7.60;81.90;;;;;;5009664;28;20053;-55
2021/11/05 11:55:37;;;;;;;13.70;4.57;;;7.60;84.30;;;;;;5026502;28;20041;-52
2021/11/05 11:58:18;;;;;;;7.95;3.97;;;7.70;83.30;;;;;;5025944;28;20103;-56
2021/11/05 12:00:47;;;;;;;11.95;4.20;;;7.70;80.10;;;;;;5024779;28;20081;-53
2021/11/05 12:03:22;;;;;;;7.75;3.95;;;7.80;83.60;;;;;;5025859;28;20053;-51
2021/11/05 12:05:49;;;;;;;7.82;3.60;;;7.90;83.50;;;;;;5026364;28;20095;-55
2021/11/05 12:08:23;;;;;;;10.40;4.20;;;7.90;81.50;;;;;;5025864;28;20072;-50
2021/11/05 12:10:55;;;;;;;15.82;4.15;;;7.90;81.20;;;;;;5026589;28;20128;-56
2021/11/05 12:13:34;;;;;;;7.70;4.40;;;8.00;82.40;;;;;;5025438;28;20518;-56
2021/11/05 12:16:23;;;;;;;11.27;3.97;;;8.00;81.10;;;;;;5025351;28;20057;-52
2021/11/05 12:18:57;;;;;;;6.38;2.60;;;8.10;78.70;;;;;;5023252;28;20610;-57
2021/11/05 12:21:34;;;;;;;8.05;3.35;;;8.10;80.50;;;;;;5025545;28;20076;-55
2021/11/05 12:24:16;;;;;;;8.75;2.60;;;8.10;81.40;;;;;;5024717;28;20492;-55
2021/11/05 12:26:43;;;;;;;12.05;4.82;;;8.10;77.80;;;;;;5025527;28;20562;-54
2021/11/05 12:29:10;;;;;;;8.00;4.43;;;8.10;81.50;;;;;;5025269;28;20168;-53
2021/11/05 12:31:43;;;;;;;5.30;2.45;;;8.20;80.80;;;;;;5024289;28;20485;-54
2021/11/05 12:34:16;;;;;;;7.95;3.25;;;8.20;77.10;;;;;;5022517;28;20130;-55
2021/11/05 12:36:46;;;;;;;6.55;3.72;;;8.20;78.80;;;;;;5025799;28;20093;-55
2021/11/05 12:39:13;;;;;;;4.57;2.42;;;8.20;76.40;;;;;;5025163;28;20057;-56
2021/11/05 12:41:59;;;;;;;8.82;3.75;;;8.30;79.30;;;;;;5023364;28;20489;-59
2021/11/05 12:44:29;;;;;;;4.60;2.50;;;8.30;75.30;;;;;;5024922;28;20085;-55
2021/11/05 12:46:56;;;;;;;4.57;2.80;;;8.40;77.00;;;;;;5025848;28;20439;-55
2021/11/05 12:49:23;;;;;;;4.35;2.05;;;8.40;78.30;;;;;;5025307;28;20105;-56